Time;durP1;ratioP1;P1;durP2;ratioP2;P2;SDS_P1;SDS_P2;PMS_P1;PMS_P2;Temp;Humidity;BMP_temperature;BMP_pressure;BME280_temperature;BME280_humidity;BME280_pressure;Samples;Min_cycle;Max_cycle;Signal;HPM_P1;HPM_P2
2022/04/07 00:03:43;;;;;;;3.78;1.70;;;10.70;98.10;;;;;;10360594;28;20042;-65
2022/04/07 00:08:44;;;;;;;3.42;1.63;;;10.70;98.10;;;;;;10353209;28;20022;-61
2022/04/07 00:13:46;;;;;;;5.18;1.70;;;10.70;98.10;;;;;;10366220;28;20037;-62
2022/04/07 00:18:46;;;;;;;2.85;1.48;;;10.70;98.10;;;;;;10365548;28;20393;-60
2022/04/07 00:23:47;;;;;;;4.53;1.60;;;10.70;98.10;;;;;;10365264;28;20050;-59
2022/04/07 00:28:48;;;;;;;4.68;1.90;;;10.70;98.10;;;;;;10362376;28;20029;-60
2022/04/07 00:33:48;;;;;;;2.67;1.20;;;10.70;98.10;;;;;;10365382;28;20030;-66
2022/04/07 00:38:49;;;;;;;4.05;1.77;;;10.60;98.10;;;;;;10365018;28;20040;-61
2022/04/07 00:43:53;;;;;;;2.35;1.42;;;10.70;98.10;;;;;;10362818;28;20125;-60
2022/04/07 00:48:54;;;;;;;3.40;1.42;;;10.80;98.10;;;;;;10361855;28;20202;-60
2022/04/07 00:53:55;;;;;;;4.72;1.83;;;10.70;98.10;;;;;;10360808;28;20034;-60
2022/04/07 00:58:56;;;;;;;4.53;1.50;;;10.70;98.10;;;;;;10367473;28;20069;-58
2022/04/07 01:03:58;;;;;;;3.38;1.58;;;10.70;98.10;;;;;;10360296;28;20048;-60
2022/04/07 01:08:59;;;;;;;4.00;2.08;;;10.70;98.10;;;;;;10363528;28;20500;-64
2022/04/07 01:13:59;;;;;;;4.97;2.00;;;10.60;98.00;;;;;;10362583;28;20026;-59
2022/04/07 01:19:00;;;;;;;2.58;1.88;;;10.60;98.00;;;;;;10361985;28;20030;-61
2022/04/07 01:24:05;;;;;;;4.10;2.08;;;10.60;98.10;;;;;;10353550;28;20038;-60
2022/04/07 01:29:08;;;;;;;2.97;2.03;;;10.60;98.00;;;;;;10358511;28;20092;-63
2022/04/07 01:34:17;;;;;;;3.65;1.92;;;10.60;98.10;;;;;;10363686;28;20041;-60
2022/04/07 01:39:21;;;;;;;;;;;10.60;98.10;;;;;;10365063;28;20711;-61
2022/04/07 01:44:23;;;;;;;3.92;1.80;;;10.60;98.10;;;;;;10360956;28;19913;-59
2022/04/07 01:49:25;;;;;;;5.78;1.77;;;10.60;98.00;;;;;;10365252;28;20065;-60
2022/04/07 01:54:26;;;;;;;3.33;1.65;;;10.60;98.00;;;;;;10359722;28;20496;-62
2022/04/07 01:59:28;;;;;;;2.95;1.88;;;10.60;98.00;;;;;;10351523;28;20485;-61
2022/04/07 02:04:29;;;;;;;3.03;1.38;;;10.60;98.10;;;;;;10357253;28;20022;-64
2022/04/07 02:09:33;;;;;;;2.83;1.52;;;10.60;98.10;;;;;;10348626;28;20054;-65
2022/04/07 02:14:36;;;;;;;5.40;1.92;;;10.60;98.00;;;;;;10348913;28;20029;-66
2022/04/07 02:19:37;;;;;;;3.83;1.50;;;10.60;98.10;;;;;;10363344;28;20026;-60
2022/04/07 02:24:40;;;;;;;1.88;1.25;;;10.50;98.00;;;;;;10369203;28;20411;-65
2022/04/07 02:29:44;;;;;;;7.57;1.55;;;10.50;98.00;;;;;;10371326;28;20041;-65
2022/04/07 02:34:45;;;;;;;3.80;1.50;;;10.50;98.00;;;;;;10369916;28;20049;-63
2022/04/07 02:39:46;;;;;;;3.05;1.33;;;10.50;98.00;;;;;;10367807;28;20133;-63
2022/04/07 02:44:47;;;;;;;3.45;1.38;;;10.60;98.00;;;;;;10365614;28;20399;-65
2022/04/07 02:49:47;;;;;;;3.72;1.33;;;10.50;98.00;;;;;;10368015;28;20099;-65
2022/04/07 02:54:48;;;;;;;2.72;1.50;;;10.50;98.00;;;;;;10366182;28;20048;-61
2022/04/07 02:59:49;;;;;;;2.72;1.40;;;10.50;98.00;;;;;;10364655;28;20049;-64
2022/04/07 03:04:50;;;;;;;6.57;1.65;;;10.50;98.00;;;;;;10366553;28;20057;-61
2022/04/07 03:09:50;;;;;;;2.97;1.23;;;10.50;98.00;;;;;;10354887;28;20395;-65
2022/04/07 03:14:51;;;;;;;3.33;1.40;;;10.70;98.10;;;;;;10366965;28;20037;-66
2022/04/07 03:19:52;;;;;;;5.70;1.73;;;10.50;98.10;;;;;;10364446;28;20038;-64
2022/04/07 03:24:53;;;;;;;3.40;1.42;;;10.50;98.10;;;;;;10365143;28;20050;-66
2022/04/07 03:29:53;;;;;;;10.30;1.35;;;10.50;98.10;;;;;;10376806;28;20037;-61
2022/04/07 03:34:54;;;;;;;3.78;1.30;;;10.50;98.10;;;;;;10366343;28;20029;-63
2022/04/07 03:39:55;;;;;;;3.90;1.27;;;10.50;98.10;;;;;;10369053;28;20042;-65
2022/04/07 03:44:56;;;;;;;3.85;1.23;;;10.50;98.10;;;;;;10368122;28;20058;-62
2022/04/07 03:49:57;;;;;;;6.60;1.70;;;10.50;98.10;;;;;;10363512;28;20022;-64
2022/04/07 03:54:58;;;;;;;1.85;0.80;;;10.40;98.10;;;;;;10359848;28;20030;-60
2022/04/07 03:59:59;;;;;;;8.35;1.38;;;10.50;98.10;;;;;;10355038;28;20045;-65
2022/04/07 04:05:00;;;;;;;4.75;1.50;;;10.40;98.10;;;;;;10366583;28;20030;-61
2022/04/07 04:10:01;;;;;;;5.03;1.40;;;10.20;98.00;;;;;;10363806;28;20495;-63
2022/04/07 04:15:03;;;;;;;6.13;1.70;;;10.40;98.10;;;;;;10362297;28;20064;-66
2022/04/07 04:20:04;;;;;;;9.63;1.73;;;10.40;98.10;;;;;;10357060;28;20118;-63
2022/04/07 04:25:07;;;;;;;6.15;1.42;;;10.40;98.10;;;;;;10323962;28;1303637;-60
2022/04/07 04:30:09;;;;;;;6.50;2.00;;;10.40;98.10;;;;;;10339433;28;20038;-61
2022/04/07 04:35:13;;;;;;;4.63;1.52;;;10.40;98.10;;;;;;10358171;28;20040;-61
2022/04/07 04:40:14;;;;;;;5.85;1.83;;;10.40;98.10;;;;;;10360306;28;20482;-69
2022/04/07 04:45:14;;;;;;;13.73;1.77;;;10.40;98.10;;;;;;10360960;28;20026;-60
2022/04/07 04:50:15;;;;;;;6.78;1.60;;;10.40;98.10;;;;;;10354080;28;20484;-64
2022/04/07 04:55:16;;;;;;;8.30;1.60;;;10.40;98.10;;;;;;10360013;28;20480;-60
2022/04/07 05:00:17;;;;;;;5.65;1.52;;;10.40;98.10;;;;;;10359671;28;20046;-62
2022/04/07 05:05:18;;;;;;;5.93;1.75;;;10.40;98.10;;;;;;10363684;28;20026;-60
2022/04/07 05:10:18;;;;;;;7.07;2.20;;;10.40;98.10;;;;;;10354225;28;20022;-61
2022/04/07 05:15:20;;;;;;;8.05;1.83;;;10.40;98.20;;;;;;10361616;28;20116;-65
2022/04/07 05:20:23;;;;;;;5.80;1.65;;;10.30;98.20;;;;;;10364100;28;20072;-64
2022/04/07 05:25:24;;;;;;;5.65;1.95;;;10.30;98.20;;;;;;10362368;28;20434;-63
2022/04/07 05:30:25;;;;;;;8.32;2.67;;;10.30;98.20;;;;;;10348562;28;20025;-66
2022/04/07 05:35:28;;;;;;;5.35;1.77;;;10.30;98.30;;;;;;10345356;28;20499;-64
2022/04/07 05:40:30;;;;;;;3.83;1.40;;;10.30;98.30;;;;;;10355660;28;20053;-63
2022/04/07 05:45:30;;;;;;;4.30;1.75;;;10.30;98.30;;;;;;10364000;28;20187;-63
2022/04/07 05:50:31;;;;;;;6.22;1.95;;;10.30;98.40;;;;;;10366149;28;20091;-63
2022/04/07 05:55:36;;;;;;;3.53;1.40;;;10.30;98.40;;;;;;10359808;28;20026;-67
2022/04/07 06:00:37;;;;;;;3.75;1.33;;;10.30;98.40;;;;;;10357404;28;20466;-61
2022/04/07 06:05:38;;;;;;;3.83;1.20;;;10.20;98.40;;;;;;10361592;28;20042;-67
2022/04/07 06:10:38;;;;;;;5.78;1.60;;;10.20;98.40;;;;;;10342982;28;20037;-64
2022/04/07 06:15:39;;;;;;;4.15;1.77;;;10.20;98.30;;;;;;10327984;28;20078;-67
2022/04/07 06:20:41;;;;;;;3.67;1.00;;;10.20;98.30;;;;;;10323100;28;20112;-66
2022/04/07 06:25:42;;;;;;;1.52;1.25;;;10.10;98.30;;;;;;10339344;28;20124;-67
2022/04/07 06:30:43;;;;;;;3.63;1.20;;;10.20;98.30;;;;;;10338461;28;20026;-67
2022/04/07 06:35:43;;;;;;;4.38;1.63;;;10.10;98.20;;;;;;10320769;28;20020;-66
2022/04/07 06:40:44;;;;;;;3.08;0.90;;;10.10;98.20;;;;;;10327311;28;20034;-68
2022/04/07 06:45:45;;;;;;;2.95;0.90;;;10.10;98.20;;;;;;10325853;28;20035;-65
2022/04/07 06:50:46;;;;;;;4.80;1.10;;;10.00;98.20;;;;;;10326076;28;20026;-66
2022/04/07 06:55:47;;;;;;;2.60;1.00;;;10.00;98.10;;;;;;10324398;28;20039;-62
2022/04/07 07:00:47;;;;;;;2.67;0.90;;;9.90;98.10;;;;;;10326504;28;20052;-62
2022/04/07 07:05:48;;;;;;;1.83;0.60;;;10.00;98.10;;;;;;10331423;28;20337;-65
2022/04/07 07:10:50;;;;;;;3.35;0.68;;;9.90;98.10;;;;;;10328252;28;20042;-69
2022/04/07 07:15:51;;;;;;;4.53;0.82;;;9.90;98.00;;;;;;10335200;28;20489;-57
2022/04/07 07:20:52;;;;;;;1.48;0.57;;;9.90;98.00;;;;;;10329919;28;20030;-66
2022/04/07 07:25:53;;;;;;;3.00;0.73;;;9.90;97.90;;;;;;10332938;28;20538;-65
2022/04/07 07:30:53;;;;;;;1.25;0.80;;;9.80;97.90;;;;;;10340727;28;20040;-66
2022/04/07 07:35:54;;;;;;;3.40;0.38;;;9.80;97.80;;;;;;10356320;28;20066;-69
2022/04/07 07:40:55;;;;;;;2.85;0.63;;;9.80;97.80;;;;;;10365848;28;20406;-66
2022/04/07 07:45:55;;;;;;;2.13;0.52;;;9.80;97.80;;;;;;10368384;28;20479;-65
2022/04/07 07:50:57;;;;;;;2.58;0.52;;;9.80;97.80;;;;;;10371365;28;20510;-61
2022/04/07 07:55:58;;;;;;;1.83;0.60;;;9.80;97.70;;;;;;10363187;28;20378;-67
2022/04/07 08:00:59;;;;;;;0.47;0.30;;;9.80;97.60;;;;;;10354188;28;20134;-64
2022/04/07 08:05:59;;;;;;;1.63;0.50;;;9.80;97.60;;;;;;10362367;28;20146;-67
2022/04/07 08:11:00;;;;;;;2.45;0.60;;;9.80;97.50;;;;;;10355415;28;20022;-63
2022/04/07 08:16:01;;;;;;;1.08;0.45;;;9.80;97.40;;;;;;10365664;28;20049;-66
2022/04/07 08:21:02;;;;;;;2.00;0.63;;;9.80;97.40;;;;;;10371376;28;20046;-66
2022/04/07 08:26:03;;;;;;;1.83;0.30;;;9.80;97.30;;;;;;10365614;28;20053;-64
2022/04/07 08:31:03;;;;;;;0.82;0.30;;;9.90;97.30;;;;;;10366433;28;20503;-64
2022/04/07 08:36:04;;;;;;;2.58;0.55;;;9.80;97.20;;;;;;10374347;28;20034;-68
2022/04/07 08:41:09;;;;;;;2.17;0.70;;;9.80;97.20;;;;;;10372404;28;20046;-70
2022/04/07 08:46:14;;;;;;;3.10;0.80;;;9.90;97.20;;;;;;10363105;28;20040;-70
2022/04/07 08:51:17;;;;;;;1.60;0.50;;;9.90;97.20;;;;;;10363806;28;20365;-65
2022/04/07 08:56:17;;;;;;;0.95;0.30;;;9.90;97.10;;;;;;10364965;28;20092;-62
2022/04/07 09:01:18;;;;;;;2.83;0.38;;;10.00;97.10;;;;;;10360898;28;20033;-63
2022/04/07 09:06:20;;;;;;;5.07;0.70;;;10.10;97.10;;;;;;10367881;28;20029;-65
2022/04/07 09:11:21;;;;;;;3.78;0.50;;;10.10;97.00;;;;;;10358154;28;20440;-66
2022/04/07 09:16:22;;;;;;;2.10;0.57;;;10.10;96.90;;;;;;10362838;28;20030;-69
2022/04/07 09:21:31;;;;;;;0.70;0.40;;;10.20;96.90;;;;;;10364497;28;20034;-69
2022/04/07 09:26:35;;;;;;;1.00;0.38;;;10.20;96.80;;;;;;10363236;28;20090;-66
2022/04/07 09:31:38;;;;;;;3.28;0.40;;;10.30;96.70;;;;;;10350482;28;20054;-64
2022/04/07 09:36:39;;;;;;;1.63;0.47;;;10.40;96.60;;;;;;10363581;28;20113;-67
2022/04/07 09:41:40;;;;;;;1.13;0.50;;;10.40;96.50;;;;;;10371463;28;20052;-70
2022/04/07 09:46:40;;;;;;;4.07;0.75;;;10.50;96.50;;;;;;10372581;28;20069;-69
2022/04/07 09:51:47;;;;;;;6.63;1.02;;;10.50;96.50;;;;;;10354113;28;20219;-70
2022/04/07 09:56:48;;;;;;;3.38;0.60;;;10.60;96.40;;;;;;10362519;28;20033;-69
2022/04/07 10:01:50;;;;;;;1.70;0.63;;;10.70;96.40;;;;;;10361998;28;20030;-70
2022/04/07 10:06:54;;;;;;;1.90;0.60;;;10.70;96.40;;;;;;10353635;28;20046;-72
2022/04/07 10:11:58;;;;;;;4.82;0.65;;;10.70;96.40;;;;;;10359222;28;20693;-66
2022/04/07 10:16:59;;;;;;;3.33;0.63;;;10.70;96.40;;;;;;10362770;28;20022;-61
2022/04/07 10:22:32;;;;;;;2.35;0.73;;;10.80;96.30;;;;;;10362342;28;20038;-70
2022/04/07 10:27:42;;;;;;;7.68;0.90;;;10.80;96.10;;;;;;10333458;28;20077;-65
2022/04/07 10:32:47;;;;;;;3.88;0.95;;;11.60;96.40;;;;;;10355021;28;20035;-63
2022/04/07 10:37:49;;;;;;;3.90;1.00;;;10.90;96.10;;;;;;10357952;28;20053;-64
2022/04/07 10:43:15;;;;;;;5.88;1.40;;;10.90;96.00;;;;;;10378285;28;20045;-68
2022/04/07 10:48:25;;;;;;;6.00;0.93;;;10.90;95.80;;;;;;10363076;28;20026;-65
2022/04/07 10:53:30;;;;;;;5.25;0.68;;;11.00;95.80;;;;;;10370556;28;20030;-61
2022/04/07 10:58:38;;;;;;;3.03;0.52;;;11.00;95.80;;;;;;10369532;28;20032;-63
2022/04/07 11:03:41;;;;;;;7.88;1.48;;;11.00;95.80;;;;;;10364870;28;20050;-63
2022/04/07 11:08:44;;;;;;;5.13;1.55;;;11.10;95.90;;;;;;10358618;28;20021;-62
2022/04/07 11:13:46;;;;;;;6.60;0.90;;;11.00;95.90;;;;;;10362960;28;20058;-59
2022/04/07 11:19:04;;;;;;;8.57;1.13;;;11.00;95.90;;;;;;10365700;28;20387;-66
2022/04/07 11:24:08;;;;;;;9.93;1.20;;;11.00;95.90;;;;;;10366171;28;20144;-60
2022/04/07 11:29:12;;;;;;;8.25;1.33;;;11.00;95.90;;;;;;10366209;28;20088;-62
2022/04/07 11:34:49;;;;;;;9.30;1.58;;;11.10;95.80;;;;;;10366687;28;20084;-63
2022/04/07 11:39:54;;;;;;;9.82;1.40;;;11.10;95.30;;;;;;10309729;28;20041;-59
2022/04/07 11:44:59;;;;;;;8.50;1.20;;;11.10;95.50;;;;;;10365850;28;20038;-66
2022/04/07 11:50:00;;;;;;;5.25;1.40;;;11.20;95.50;;;;;;10360911;28;20026;-60
2022/04/07 11:55:04;;;;;;;11.23;1.52;;;11.20;95.50;;;;;;10358768;28;20117;-60
2022/04/07 12:00:05;;;;;;;8.45;1.92;;;11.30;95.30;;;;;;10359988;28;20053;-68
2022/04/07 12:05:06;;;;;;;10.88;1.88;;;11.30;95.20;;;;;;10358976;28;20034;-68
2022/04/07 12:10:09;;;;;;;7.22;1.52;;;11.30;95.20;;;;;;10363756;28;20109;-67
2022/04/07 12:15:11;;;;;;;9.75;1.80;;;11.40;95.10;;;;;;10358802;28;20030;-68
2022/04/07 12:20:21;;;;;;;6.45;1.33;;;11.40;95.10;;;;;;10361826;28;20158;-66
2022/04/07 12:25:25;;;;;;;6.85;1.77;;;11.50;94.80;;;;;;10365319;28;20060;-70
2022/04/07 12:30:45;;;;;;;5.20;1.30;;;11.50;94.80;;;;;;10359277;28;20034;-72
2022/04/07 12:35:49;;;;;;;8.07;1.88;;;11.50;94.70;;;;;;10360260;28;20103;-65
2022/04/07 12:40:50;;;;;;;9.18;1.30;;;11.60;94.70;;;;;;10350226;28;20431;-67
2022/04/07 12:45:57;;;;;;;7.47;1.10;;;11.60;94.70;;;;;;10367800;28;20106;-64
2022/04/07 12:50:58;;;;;;;7.60;1.60;;;11.60;94.60;;;;;;10358403;28;20125;-63
2022/04/07 12:56:02;;;;;;;6.07;1.50;;;11.60;94.50;;;;;;10361730;28;20164;-68
2022/04/07 13:01:03;;;;;;;6.22;1.50;;;11.60;94.60;;;;;;10356579;28;20049;-65
2022/04/07 13:06:08;;;;;;;7.07;1.73;;;11.50;94.50;;;;;;10360165;28;20033;-68
2022/04/07 13:11:08;;;;;;;5.70;1.52;;;11.40;94.70;;;;;;10353585;28;20042;-63
2022/04/07 13:16:09;;;;;;;8.98;1.27;;;11.40;94.90;;;;;;10363598;28;20032;-65
2022/04/07 13:21:10;;;;;;;8.68;1.30;;;11.30;95.10;;;;;;10363609;28;20056;-70
2022/04/07 13:26:10;;;;;;;5.72;1.00;;;11.30;95.30;;;;;;10365017;28;20061;-69
2022/04/07 13:31:11;;;;;;;8.48;1.48;;;11.20;95.50;;;;;;10349712;28;20055;-62
2022/04/07 13:36:12;;;;;;;4.93;1.02;;;11.10;95.70;;;;;;10361832;28;20125;-70
2022/04/07 13:41:13;;;;;;;5.18;1.20;;;11.20;95.80;;;;;;10359903;28;20045;-73
2022/04/07 13:46:14;;;;;;;3.58;0.80;;;11.20;95.80;;;;;;10356361;28;20034;-66
2022/04/07 13:51:16;;;;;;;6.50;1.10;;;11.20;95.80;;;;;;10364005;28;20041;-70
2022/04/07 13:56:16;;;;;;;5.40;1.20;;;11.20;95.80;;;;;;10362341;28;20034;-70
2022/04/07 14:01:21;;;;;;;8.45;1.08;;;11.30;95.50;;;;;;10345636;28;20064;-73
2022/04/07 14:06:22;;;;;;;4.28;1.05;;;11.20;95.60;;;;;;10357773;28;20073;-65
2022/04/07 14:11:23;;;;;;;4.65;1.02;;;11.20;95.60;;;;;;10353411;28;20054;-74
2022/04/07 14:16:24;;;;;;;7.72;1.15;;;11.20;95.80;;;;;;10366930;28;20088;-77
2022/04/07 14:21:25;;;;;;;3.55;1.23;;;11.20;95.80;;;;;;10374224;28;20040;-67
2022/04/07 14:26:26;;;;;;;4.60;1.92;;;11.20;95.70;;;;;;10367289;28;20042;-62
2022/04/07 14:31:27;;;;;;;7.10;1.38;;;11.10;95.70;;;;;;10368705;28;20421;-67
2022/04/07 14:36:27;;;;;;;5.20;1.08;;;11.00;95.90;;;;;;10368472;28;20038;-64
2022/04/07 14:41:29;;;;;;;5.97;0.98;;;11.20;95.80;;;;;;10367631;28;20443;-69
2022/04/07 14:46:30;;;;;;;6.22;1.77;;;11.30;95.70;;;;;;10343973;28;20076;-60
2022/04/07 14:51:32;;;;;;;6.25;1.23;;;11.40;95.60;;;;;;10355798;28;20087;-68
2022/04/07 14:56:33;;;;;;;5.63;1.30;;;11.50;95.50;;;;;;10359715;28;20036;-74
2022/04/07 15:01:33;;;;;;;6.45;1.45;;;11.50;95.50;;;;;;10366423;28;20040;-68
2022/04/07 15:06:34;;;;;;;5.20;1.30;;;11.40;95.50;;;;;;10365166;28;20033;-70
2022/04/07 15:11:35;;;;;;;7.47;0.90;;;11.30;95.60;;;;;;10376217;28;20498;-75
2022/04/07 15:16:37;;;;;;;3.83;1.23;;;11.20;95.70;;;;;;10378368;28;20333;-74
2022/04/07 15:21:38;;;;;;;4.03;1.00;;;11.20;95.90;;;;;;10375844;28;20041;-70
2022/04/07 15:26:39;;;;;;;4.72;0.98;;;11.10;96.00;;;;;;10345535;28;20666;-70
2022/04/07 15:31:40;;;;;;;6.30;1.88;;;11.00;96.10;;;;;;10335912;28;20027;-71
2022/04/07 15:36:40;;;;;;;7.28;1.25;;;11.00;96.20;;;;;;10336486;28;20027;-66
2022/04/07 15:41:42;;;;;;;3.00;0.90;;;10.90;96.30;;;;;;10337433;28;20620;-67
2022/04/07 15:46:42;;;;;;;6.15;1.00;;;10.90;96.40;;;;;;10338332;28;20030;-72
2022/04/07 15:51:43;;;;;;;3.90;1.00;;;10.80;96.50;;;;;;10348481;28;20026;-70
2022/04/07 15:56:44;;;;;;;2.95;0.93;;;10.90;96.50;;;;;;10339618;28;20610;-75
2022/04/07 16:01:45;;;;;;;3.85;1.17;;;10.90;96.50;;;;;;10363163;28;20037;-71
2022/04/07 16:06:46;;;;;;;3.40;1.33;;;10.90;96.40;;;;;;10371963;28;20054;-68
2022/04/07 16:11:47;;;;;;;7.65;1.30;;;10.90;96.30;;;;;;10361854;28;20040;-71
2022/04/07 16:16:48;;;;;;;2.92;0.90;;;10.90;96.30;;;;;;10362659;28;20034;-65
2022/04/07 16:21:49;;;;;;;2.13;0.90;;;10.90;96.30;;;;;;10366507;28;20059;-64
2022/04/07 16:26:50;;;;;;;2.35;1.08;;;10.90;96.30;;;;;;10360282;28;20038;-62
2022/04/07 16:31:50;;;;;;;3.97;0.90;;;10.90;96.30;;;;;;10365954;28;20041;-63
2022/04/07 16:36:51;;;;;;;4.95;0.82;;;10.80;96.40;;;;;;10364803;28;20045;-67
2022/04/07 16:41:52;;;;;;;6.15;1.13;;;10.80;96.40;;;;;;10365360;28;20026;-70
2022/04/07 16:46:53;;;;;;;4.20;1.23;;;10.20;96.30;;;;;;10352813;28;20033;-64
2022/04/07 16:51:55;;;;;;;3.80;0.98;;;10.80;96.40;;;;;;10357496;28;20037;-64
2022/04/07 16:56:55;;;;;;;5.53;1.15;;;10.80;96.40;;;;;;10362561;28;20022;-59
2022/04/07 17:01:56;;;;;;;4.55;0.90;;;10.70;96.40;;;;;;10356721;28;20050;-69
2022/04/07 17:06:57;;;;;;;4.35;1.50;;;10.70;96.50;;;;;;10357975;28;20074;-63
2022/04/07 17:12:12;;;;;;;2.15;0.77;;;10.60;96.50;;;;;;10356593;28;20072;-62
2022/04/07 17:17:12;;;;;;;2.25;0.70;;;10.60;96.50;;;;;;10358560;28;20490;-67
2022/04/07 17:22:15;;;;;;;1.50;0.80;;;10.60;96.60;;;;;;10356904;28;20081;-60
2022/04/07 17:27:16;;;;;;;4.03;1.25;;;10.70;96.50;;;;;;10347345;28;20070;-61
2022/04/07 17:32:17;;;;;;;3.72;1.13;;;10.60;96.50;;;;;;10351774;28;20129;-69
2022/04/07 17:37:18;;;;;;;5.07;0.70;;;10.70;96.50;;;;;;10357193;28;20022;-66
2022/04/07 17:42:25;;;;;;;3.05;0.73;;;10.60;96.50;;;;;;10359233;28;20044;-62
2022/04/07 17:47:26;;;;;;;4.18;0.77;;;10.60;96.50;;;;;;10359318;28;20065;-59
2022/04/07 17:52:29;;;;;;;2.40;0.60;;;10.60;96.60;;;;;;10357265;28;20026;-59
2022/04/07 17:57:33;;;;;;;1.60;0.80;;;10.60;96.50;;;;;;10362631;28;20014;-58
2022/04/07 18:02:34;;;;;;;1.77;0.80;;;10.50;96.50;;;;;;10351867;28;20076;-58
2022/04/07 18:07:36;;;;;;;3.03;0.68;;;10.50;96.50;;;;;;10356292;28;20600;-62
2022/04/07 18:12:37;;;;;;;1.50;0.52;;;10.40;96.50;;;;;;10354149;28;20118;-63
2022/04/07 18:17:38;;;;;;;2.47;0.70;;;10.40;96.50;;;;;;10366851;28;20049;-68
2022/04/07 18:22:44;;;;;;;3.53;0.75;;;10.40;96.50;;;;;;10370298;28;20025;-63
2022/04/07 18:27:44;;;;;;;1.73;0.95;;;10.40;96.50;;;;;;10365864;28;20536;-70
2022/04/07 18:32:45;;;;;;;2.55;1.05;;;10.30;96.40;;;;;;10355387;28;20034;-61
2022/04/07 18:37:46;;;;;;;2.58;0.70;;;9.90;96.40;;;;;;10359869;28;20050;-64
2022/04/07 18:42:47;;;;;;;3.97;1.00;;;10.40;96.50;;;;;;10363209;28;20053;-72
2022/04/07 18:47:48;;;;;;;2.67;0.80;;;10.40;96.40;;;;;;10358196;28;20033;-73
2022/04/07 18:52:50;;;;;;;1.58;0.80;;;10.30;96.40;;;;;;10353057;28;20073;-73
2022/04/07 18:57:52;;;;;;;2.92;1.02;;;10.10;96.40;;;;;;10355402;28;20477;-71
2022/04/07 19:02:53;;;;;;;2.33;0.80;;;10.30;96.40;;;;;;10354851;28;20057;-68
2022/04/07 19:07:55;;;;;;;4.03;0.90;;;10.30;96.40;;;;;;10357628;28;20440;-68
2022/04/07 19:12:56;;;;;;;2.83;0.90;;;10.30;96.50;;;;;;10355859;28;20141;-72
2022/04/07 19:17:57;;;;;;;3.90;0.90;;;10.20;96.40;;;;;;10358814;28;20148;-64
2022/04/07 19:23:01;;;;;;;2.15;1.10;;;10.30;96.50;;;;;;10356460;28;20046;-60
2022/04/07 19:28:02;;;;;;;3.53;0.98;;;10.30;96.60;;;;;;10334378;28;20038;-70
2022/04/07 19:33:03;;;;;;;2.90;1.00;;;10.30;96.60;;;;;;10362308;28;20030;-60
2022/04/07 19:38:03;;;;;;;4.05;1.13;;;10.20;96.60;;;;;;10365298;28;20021;-67
2022/04/07 19:43:07;;;;;;;6.38;1.23;;;10.20;96.60;;;;;;10365664;28;20050;-64
2022/04/07 19:48:08;;;;;;;4.80;1.08;;;10.20;96.60;;;;;;10369728;28;20033;-68
2022/04/07 19:53:09;;;;;;;3.63;0.90;;;10.10;96.70;;;;;;10370445;28;20490;-62
2022/04/07 19:58:10;;;;;;;5.00;1.00;;;10.10;96.60;;;;;;10370591;28;20113;-61
2022/04/07 20:03:11;;;;;;;2.22;0.82;;;10.10;96.70;;;;;;10376292;28;20407;-68
2022/04/07 20:08:12;;;;;;;2.78;1.20;;;10.10;96.70;;;;;;10366825;28;20125;-69
2022/04/07 20:13:13;;;;;;;2.40;0.80;;;10.10;96.70;;;;;;10351035;28;20030;-68
2022/04/07 20:18:14;;;;;;;2.28;0.70;;;10.10;96.70;;;;;;10359206;28;20045;-63
2022/04/07 20:23:16;;;;;;;2.88;0.75;;;10.00;96.70;;;;;;10359662;28;20048;-61
2022/04/07 20:28:19;;;;;;;3.60;1.38;;;10.10;96.70;;;;;;10349004;28;20087;-62
2022/04/07 20:33:20;;;;;;;4.05;0.80;;;10.10;96.70;;;;;;10358036;28;20033;-68
2022/04/07 20:38:21;;;;;;;2.97;0.80;;;10.10;96.70;;;;;;10366937;28;20092;-60
2022/04/07 20:43:22;;;;;;;3.22;1.08;;;10.00;96.70;;;;;;10363180;28;20037;-62
2022/04/07 20:48:25;;;;;;;5.10;1.13;;;10.00;96.70;;;;;;10364847;28;20034;-64
2022/04/07 20:53:26;;;;;;;3.00;0.85;;;10.00;96.80;;;;;;10363064;28;20045;-70
2022/04/07 20:58:27;;;;;;;3.90;0.85;;;10.10;96.80;;;;;;10362075;28;20137;-68
2022/04/07 21:03:28;;;;;;;5.10;1.02;;;10.00;96.70;;;;;;10366500;28;20060;-63
2022/04/07 21:08:28;;;;;;;4.53;0.95;;;10.00;96.80;;;;;;10367504;28;20096;-66
2022/04/07 21:13:29;;;;;;;4.18;1.00;;;10.00;96.80;;;;;;10366310;28;20041;-68
2022/04/07 21:18:30;;;;;;;5.45;1.00;;;10.00;96.80;;;;;;10358706;28;20021;-63
2022/04/07 21:23:31;;;;;;;4.18;1.00;;;9.90;96.80;;;;;;10346290;28;20049;-69
2022/04/07 21:28:35;;;;;;;6.10;1.67;;;9.90;96.80;;;;;;10335118;28;20037;-69
2022/04/07 21:33:36;;;;;;;3.20;0.70;;;9.90;96.80;;;;;;10338334;28;20108;-69
2022/04/07 21:38:37;;;;;;;1.50;0.60;;;10.00;96.80;;;;;;10338434;28;20554;-67
2022/04/07 21:43:38;;;;;;;3.00;0.70;;;10.00;96.90;;;;;;10332712;28;20069;-62
2022/04/07 21:48:39;;;;;;;5.78;1.10;;;9.90;96.80;;;;;;10354275;28;20030;-64
2022/04/07 21:53:40;;;;;;;6.25;0.80;;;10.00;96.80;;;;;;10360651;28;20511;-63
2022/04/07 21:58:41;;;;;;;3.15;0.93;;;9.90;96.80;;;;;;10360915;28;20049;-67
2022/04/07 22:03:42;;;;;;;4.60;1.10;;;9.90;96.80;;;;;;10351158;28;20033;-67
2022/04/07 22:08:43;;;;;;;3.60;0.88;;;9.90;96.80;;;;;;10362420;28;20033;-61
2022/04/07 22:13:44;;;;;;;4.45;0.90;;;9.90;96.70;;;;;;10360114;28;20133;-68
2022/04/07 22:18:46;;;;;;;4.30;0.95;;;9.90;96.70;;;;;;10358415;28;20038;-68
2022/04/07 22:23:47;;;;;;;4.35;0.73;;;9.90;96.70;;;;;;10357441;28;20051;-63
2022/04/07 22:28:47;;;;;;;4.00;0.80;;;9.90;96.70;;;;;;10357152;28;20026;-68
2022/04/07 22:33:48;;;;;;;5.00;0.85;;;10.00;96.70;;;;;;10359602;28;20037;-65
2022/04/07 22:38:49;;;;;;;4.78;0.90;;;9.90;96.70;;;;;;10369039;28;20022;-65
2022/04/07 22:43:50;;;;;;;7.28;1.10;;;9.90;96.70;;;;;;10366824;28;20038;-67
2022/04/07 22:48:50;;;;;;;2.40;0.80;;;9.90;96.70;;;;;;10368849;28;20026;-66
2022/04/07 22:53:51;;;;;;;5.00;1.00;;;9.80;96.70;;;;;;10356448;28;20031;-68
2022/04/07 22:58:52;;;;;;;4.47;1.00;;;9.80;96.70;;;;;;10366593;28;20113;-67
2022/04/07 23:03:53;;;;;;;3.80;0.70;;;9.90;96.70;;;;;;10357527;28;20050;-66
2022/04/07 23:08:53;;;;;;;4.00;0.55;;;9.60;96.70;;;;;;10342173;28;20045;-68
2022/04/07 23:13:54;;;;;;;5.05;0.75;;;9.80;96.70;;;;;;10367701;28;20049;-67
2022/04/07 23:18:55;;;;;;;4.25;0.82;;;9.80;96.70;;;;;;10353935;28;20080;-65
2022/04/07 23:23:56;;;;;;;6.18;0.82;;;9.80;96.70;;;;;;10366482;28;20042;-64
2022/04/07 23:28:57;;;;;;;5.47;1.55;;;9.80;96.70;;;;;;10365863;28;20090;-67
2022/04/07 23:33:59;;;;;;;4.13;1.00;;;9.80;96.70;;;;;;10366747;28;20044;-63
2022/04/07 23:39:00;;;;;;;2.78;0.68;;;9.80;96.70;;;;;;10366930;28;20430;-62
2022/04/07 23:44:01;;;;;;;3.40;0.90;;;9.80;96.70;;;;;;10366955;28;20038;-64
2022/04/07 23:49:04;;;;;;;4.57;0.55;;;9.80;96.60;;;;;;10363474;28;20108;-63
2022/04/07 23:54:05;;;;;;;3.58;0.73;;;9.70;96.60;;;;;;10365694;28;20125;-63
2022/04/07 23:59:06;;;;;;;5.07;0.80;;;9.70;96.60;;;;;;10355479;28;20168;-64
